Time;durP1;ratioP1;P1;durP2;ratioP2;P2;SDS_P1;SDS_P2;PMS_P1;PMS_P2;Temp;Humidity;BMP_temperature;BMP_pressure;BME280_temperature;BME280_humidity;BME280_pressure;Samples;Min_cycle;Max_cycle;Signal;HPM_P1;HPM_P2
2022/04/30 00:00:58;;;;;;;17.08;7.50;;;;;;;;;;5003428;28;20408;-82
2022/04/30 00:03:28;;;;;;;16.45;7.53;;;;;;;;;;5004949;28;20038;-83
2022/04/30 00:05:55;;;;;;;14.15;8.00;;;;;;;;;;4994084;28;21359;-84
2022/04/30 00:08:21;;;;;;;14.30;7.30;;;;;;;;;;5001642;28;20041;-83
2022/04/30 00:10:48;;;;;;;17.23;8.07;;;;;;;;;;5006078;28;20416;-84
2022/04/30 00:13:15;;;;;;;12.02;7.78;;;;;;;;;;5004471;28;20034;-83
2022/04/30 00:15:41;;;;;;;14.05;8.60;;;;;;;;;;5003999;28;20859;-83
2022/04/30 00:18:09;;;;;;;16.58;9.13;;;;;;;;;;5005408;28;20360;-83
2022/04/30 00:20:38;;;;;;;16.20;8.35;;;;;;;;;;5003072;28;20058;-83
2022/04/30 00:23:19;;;;;;;16.90;8.90;;;;;;;;;;5011510;28;20036;-83
2022/04/30 00:25:45;;;;;;;18.25;9.00;;;;;;;;;;4999461;28;20027;-83
2022/04/30 00:28:11;;;;;;;16.45;8.65;;;;;;;;;;5001854;28;20462;-83
2022/04/30 00:30:39;;;;;;;13.40;8.00;;;;;;;;;;5001015;28;20040;-83
2022/04/30 00:33:09;;;;;;;26.58;11.95;;;;;;;;;;4999143;28;20057;-84
2022/04/30 00:35:35;;;;;;;15.43;9.07;;;;;;;;;;5004576;28;20018;-83
2022/04/30 00:38:01;;;;;;;15.85;8.30;;;;;;;;;;5011965;28;20497;-83
2022/04/30 00:40:27;;;;;;;14.55;8.63;;;;;;;;;;5002957;28;20725;-83
2022/04/30 00:42:53;;;;;;;21.38;8.98;;;;;;;;;;5008004;28;20080;-82
2022/04/30 00:45:20;;;;;;;18.77;8.85;;;;;;;;;;5000652;28;20069;-82
2022/04/30 00:47:46;;;;;;;16.95;8.40;;;;;;;;;;5004085;28;20038;-82
2022/04/30 00:50:15;;;;;;;12.57;7.97;;;;;;;;;;5002957;28;20117;-82
2022/04/30 00:52:42;;;;;;;14.18;9.18;;;;;;;;;;5000489;28;20065;-83
2022/04/30 00:55:08;;;;;;;15.82;8.20;;;;;;;;;;5004945;28;20048;-83
2022/04/30 00:57:36;;;;;;;15.57;8.57;;;;;;;;;;5004823;28;20022;-82
2022/04/30 01:00:04;;;;;;;19.33;8.90;;;;;;;;;;5003279;28;20055;-83
2022/04/30 01:02:30;;;;;;;15.82;8.50;;;;;;;;;;5003875;28;20030;-83
2022/04/30 01:04:58;;;;;;;15.18;7.72;;;;;;;;;;5002867;28;20034;-84
2022/04/30 01:07:24;;;;;;;14.13;6.75;;;;;;;;;;5008590;28;20030;-83
2022/04/30 01:09:51;;;;;;;12.65;6.57;;;;;;;;;;5001560;28;20036;-83
2022/04/30 01:12:17;;;;;;;16.05;6.68;;;;;;;;;;5001155;28;20132;-83
2022/04/30 01:14:45;;;;;;;13.63;6.25;;;;;;;;;;5001322;28;20030;-83
2022/04/30 01:17:12;;;;;;;18.35;7.38;;;;;;;;;;5003508;28;20030;-83
2022/04/30 01:19:39;;;;;;;10.07;6.35;;;;;;;;;;5003786;28;20201;-84
2022/04/30 01:22:11;;;;;;;12.90;6.68;;;;;;;;;;5002291;28;20038;-83
2022/04/30 01:24:37;;;;;;;10.85;6.05;;;;;;;;;;4999520;28;20066;-82
2022/04/30 01:27:06;;;;;;;20.08;8.00;;;;;;;;;;4997659;28;20097;-83
2022/04/30 01:29:33;;;;;;;14.40;7.75;;;;;;;;;;5004898;28;20029;-83
2022/04/30 01:37:29;;;;;;;17.08;8.15;;;;;;;;;;4999714;28;20089;-83
2022/04/30 01:39:59;;;;;;;15.07;7.72;;;;;;;;;;5007588;28;20089;-83
2022/04/30 01:42:29;;;;;;;14.68;8.05;;;;;;;;;;5002617;28;20058;-83
2022/04/30 01:44:56;;;;;;;13.45;8.13;;;;;;;;;;5007581;28;20041;-83
2022/04/30 01:47:22;;;;;;;11.35;6.53;;;;;;;;;;5008876;28;20169;-84
2022/04/30 01:49:49;;;;;;;17.08;7.50;;;;;;;;;;5005557;28;20040;-83
2022/04/30 01:52:15;;;;;;;15.60;7.97;;;;;;;;;;5003932;28;20045;-83
2022/04/30 01:54:42;;;;;;;15.10;8.43;;;;;;;;;;5004601;28;20036;-83
2022/04/30 01:57:08;;;;;;;17.90;8.10;;;;;;;;;;5003894;28;20026;-82
2022/04/30 01:59:35;;;;;;;14.77;8.40;;;;;;;;;;5003510;28;20033;-82
2022/04/30 02:02:02;;;;;;;22.50;10.55;;;;;;;;;;5005182;28;20046;-82
2022/04/30 02:04:28;;;;;;;20.35;10.32;;;;;;;;;;5005796;28;20039;-83
2022/04/30 02:06:55;;;;;;;22.20;10.23;;;;;;;;;;4992006;28;20070;-84
2022/04/30 02:09:21;;;;;;;24.08;11.38;;;;;;;;;;5003435;28;20030;-83
2022/04/30 02:11:47;;;;;;;23.67;11.10;;;;;;;;;;5004128;28;20050;-84
2022/04/30 02:14:17;;;;;;;24.95;10.45;;;;;;;;;;5001336;28;20053;-83
2022/04/30 02:16:45;;;;;;;26.17;12.25;;;;;;;;;;5000398;28;20060;-83
2022/04/30 02:19:11;;;;;;;24.00;11.55;;;;;;;;;;5001696;28;20022;-84
2022/04/30 02:21:38;;;;;;;30.42;13.15;;;;;;;;;;5002374;28;20081;-84
2022/04/30 02:24:04;;;;;;;27.20;14.35;;;;;;;;;;4978557;28;20048;-84
2022/04/30 02:26:30;;;;;;;25.85;11.65;;;;;;;;;;4981925;28;20506;-84
2022/04/30 02:28:57;;;;;;;26.08;11.77;;;;;;;;;;4981022;28;20105;-84
2022/04/30 02:31:25;;;;;;;24.45;12.00;;;;;;;;;;4980451;28;20042;-83
2022/04/30 02:33:54;;;;;;;27.98;13.45;;;;;;;;;;5003929;28;20105;-84
2022/04/30 02:36:25;;;;;;;25.92;12.88;;;;;;;;;;5007999;28;20030;-84
2022/04/30 02:38:52;;;;;;;27.40;12.98;;;;;;;;;;4998065;28;20030;-84
2022/04/30 02:41:20;;;;;;;25.30;12.63;;;;;;;;;;5001835;28;20105;-84
2022/04/30 02:43:46;;;;;;;26.05;13.27;;;;;;;;;;4988391;28;20026;-83
2022/04/30 02:46:15;;;;;;;28.13;13.27;;;;;;;;;;5003977;28;20034;-83
2022/04/30 02:48:41;;;;;;;23.42;12.00;;;;;;;;;;4999954;28;20052;-84
2022/04/30 02:51:09;;;;;;;19.80;10.18;;;;;;;;;;4999674;28;20496;-83
2022/04/30 02:53:35;;;;;;;21.25;11.35;;;;;;;;;;4978172;28;20019;-84
2022/04/30 02:56:01;;;;;;;27.80;12.75;;;;;;;;;;5001366;28;20045;-83
2022/04/30 03:01:11;;;;;;;27.00;13.68;;;;;;;;;;5000495;28;21656;-85
2022/04/30 03:03:38;;;;;;;31.77;14.65;;;;;;;;;;5000299;28;20053;-83
2022/04/30 03:06:05;;;;;;;33.28;16.33;;;;;;;;;;4996582;28;20030;-83
2022/04/30 03:08:32;;;;;;;37.25;17.45;;;;;;;;;;4987319;28;20481;-83
2022/04/30 03:10:59;;;;;;;32.72;17.23;;;;;;;;;;4982164;28;20031;-83
2022/04/30 03:13:26;;;;;;;35.10;18.42;;;;;;;;;;4988030;28;20101;-82
2022/04/30 03:15:53;;;;;;;34.22;17.42;;;;;;;;;;5003910;28;20053;-84
2022/04/30 03:23:38;;;;;;;34.65;17.75;;;;;;;;;;5005938;28;20077;-83
2022/04/30 03:26:05;;;;;;;32.47;15.90;;;;;;;;;;4995143;28;20057;-84
2022/04/30 03:28:32;;;;;;;31.70;17.40;;;;;;;;;;5001622;28;20121;-84
2022/04/30 03:30:58;;;;;;;35.10;17.63;;;;;;;;;;5002844;28;20037;-82
2022/04/30 03:33:26;;;;;;;29.63;17.92;;;;;;;;;;5003441;28;20100;-82
2022/04/30 03:35:52;;;;;;;28.67;17.27;;;;;;;;;;5004454;28;20026;-84
2022/04/30 03:38:18;;;;;;;28.48;16.73;;;;;;;;;;5005184;28;20081;-84
2022/04/30 03:40:44;;;;;;;31.65;17.20;;;;;;;;;;5004780;28;20027;-84
2022/04/30 03:43:10;;;;;;;35.60;18.30;;;;;;;;;;5007477;28;20037;-83
2022/04/30 03:45:37;;;;;;;26.60;15.90;;;;;;;;;;5001174;28;20026;-83
2022/04/30 03:48:05;;;;;;;28.70;15.38;;;;;;;;;;5003450;28;20614;-85
2022/04/30 03:50:31;;;;;;;31.10;15.32;;;;;;;;;;5011689;28;20045;-82
2022/04/30 03:52:57;;;;;;;30.55;16.38;;;;;;;;;;4998697;28;20036;-82
2022/04/30 03:55:23;;;;;;;27.58;15.07;;;;;;;;;;5001517;28;20034;-84
2022/04/30 03:57:49;;;;;;;27.58;14.45;;;;;;;;;;5004761;28;20022;-82
2022/04/30 04:00:16;;;;;;;22.15;15.13;;;;;;;;;;5007138;28;20033;-83
2022/04/30 04:02:43;;;;;;;16.15;11.35;;;;;;;;;;4999334;28;20053;-82
2022/04/30 04:05:12;;;;;;;13.77;8.40;;;;;;;;;;5004038;28;20042;-82
2022/04/30 04:07:42;;;;;;;15.02;9.45;;;;;;;;;;5005464;28;20123;-82
2022/04/30 04:10:09;;;;;;;16.88;8.73;;;;;;;;;;4996509;28;20124;-82
2022/04/30 04:12:36;;;;;;;16.77;10.27;;;;;;;;;;5000379;28;20043;-82
2022/04/30 04:17:47;;;;;;;21.20;12.27;;;;;;;;;;5002602;28;20065;-83
2022/04/30 04:20:14;;;;;;;20.13;13.07;;;;;;;;;;5005943;28;20234;-82
2022/04/30 04:22:40;;;;;;;23.40;13.65;;;;;;;;;;5008952;28;20041;-82
2022/04/30 04:27:55;;;;;;;22.77;13.57;;;;;;;;;;5004447;28;20044;-83
2022/04/30 04:30:22;;;;;;;24.35;14.10;;;;;;;;;;5005403;28;20061;-82
2022/04/30 04:32:48;;;;;;;23.65;13.82;;;;;;;;;;5004393;28;20038;-82
2022/04/30 04:35:14;;;;;;;24.90;14.90;;;;;;;;;;5006197;28;20026;-81
2022/04/30 04:37:41;;;;;;;25.10;12.82;;;;;;;;;;5008653;28;20015;-83
2022/04/30 04:40:09;;;;;;;19.73;12.55;;;;;;;;;;5007917;28;20045;-81
2022/04/30 04:42:35;;;;;;;26.00;12.85;;;;;;;;;;5002874;28;20583;-82
2022/04/30 04:45:01;;;;;;;21.38;12.32;;;;;;;;;;5000274;28;20084;-82
2022/04/30 04:47:29;;;;;;;20.23;13.25;;;;;;;;;;5003783;28;20029;-82
2022/04/30 04:49:55;;;;;;;20.25;12.50;;;;;;;;;;5010286;28;20116;-83
2022/04/30 04:52:21;;;;;;;20.33;12.63;;;;;;;;;;5006682;28;20068;-84
2022/04/30 04:54:48;;;;;;;23.92;12.50;;;;;;;;;;5003539;28;20041;-83
2022/04/30 04:57:14;;;;;;;22.42;12.40;;;;;;;;;;4989065;28;20325;-82
2022/04/30 04:59:40;;;;;;;20.42;12.38;;;;;;;;;;5000203;28;20038;-84
2022/04/30 05:02:07;;;;;;;18.05;11.02;;;;;;;;;;5005113;28;20063;-84
2022/04/30 05:04:33;;;;;;;27.90;11.40;;;;;;;;;;5000279;28;20189;-83
2022/04/30 05:07:00;;;;;;;18.30;10.25;;;;;;;;;;5007521;28;20034;-82
2022/04/30 05:09:26;;;;;;;14.48;10.05;;;;;;;;;;5002195;28;20039;-82
2022/04/30 05:11:53;;;;;;;17.42;9.85;;;;;;;;;;5008710;28;20026;-84
2022/04/30 05:14:19;;;;;;;23.58;10.68;;;;;;;;;;5006507;28;20049;-84
2022/04/30 05:16:45;;;;;;;22.73;9.73;;;;;;;;;;5004956;28;20033;-84
2022/04/30 05:19:11;;;;;;;16.77;9.45;;;;;;;;;;5003221;28;20034;-81
2022/04/30 05:21:37;;;;;;;24.80;9.50;;;;;;;;;;5008746;28;20516;-83
2022/04/30 05:24:03;;;;;;;22.48;9.57;;;;;;;;;;5002171;28;21213;-82
2022/04/30 05:26:29;;;;;;;15.88;8.95;;;;;;;;;;5006582;28;20037;-82
2022/04/30 05:28:55;;;;;;;13.23;8.20;;;;;;;;;;5007971;28;20533;-85
2022/04/30 05:31:21;;;;;;;18.70;8.25;;;;;;;;;;5007249;28;20084;-83
2022/04/30 05:33:47;;;;;;;18.77;8.32;;;;;;;;;;5000631;28;20018;-83
2022/04/30 05:36:13;;;;;;;17.20;8.90;;;;;;;;;;5010172;28;20593;-81
2022/04/30 05:38:39;;;;;;;12.85;7.97;;;;;;;;;;5006103;28;20026;-84
2022/04/30 05:41:05;;;;;;;19.00;9.20;;;;;;;;;;5007058;28;20042;-84
2022/04/30 05:43:31;;;;;;;18.38;9.07;;;;;;;;;;5009131;28;20029;-83
2022/04/30 05:45:57;;;;;;;21.77;9.48;;;;;;;;;;5004432;28;20065;-83
2022/04/30 05:48:23;;;;;;;18.05;8.98;;;;;;;;;;5001642;28;20054;-83
2022/04/30 05:50:51;;;;;;;16.42;7.68;;;;;;;;;;4997353;28;20101;-81
2022/04/30 05:53:17;;;;;;;15.25;8.25;;;;;;;;;;5005718;28;20042;-82
2022/04/30 05:55:43;;;;;;;14.30;8.13;;;;;;;;;;5011106;28;20578;-86
2022/04/30 05:58:09;;;;;;;15.10;7.80;;;;;;;;;;5001532;28;20042;-82
2022/04/30 06:00:35;;;;;;;17.63;8.30;;;;;;;;;;4989558;28;20088;-82
2022/04/30 06:03:01;;;;;;;17.27;7.65;;;;;;;;;;5004279;28;20026;-82
2022/04/30 06:05:28;;;;;;;12.13;7.78;;;;;;;;;;5006782;28;20038;-84
2022/04/30 06:07:54;;;;;;;14.98;8.18;;;;;;;;;;5006529;28;20034;-82
2022/04/30 06:10:20;;;;;;;13.65;7.70;;;;;;;;;;4983213;28;20038;-82
2022/04/30 06:12:46;;;;;;;18.88;8.00;;;;;;;;;;4999715;28;20073;-83
2022/04/30 06:15:12;;;;;;;15.05;7.57;;;;;;;;;;4983660;28;20404;-83
2022/04/30 06:17:38;;;;;;;12.18;7.70;;;;;;;;;;5001151;28;20072;-87
2022/04/30 06:20:04;;;;;;;16.40;7.75;;;;;;;;;;5003774;28;20037;-83
2022/04/30 06:22:31;;;;;;;14.35;7.25;;;;;;;;;;5001619;28;20460;-83
2022/04/30 06:24:57;;;;;;;12.63;6.85;;;;;;;;;;5008406;28;20030;-84
2022/04/30 06:27:23;;;;;;;12.10;6.97;;;;;;;;;;5013248;28;20046;-84
2022/04/30 06:29:50;;;;;;;15.80;6.50;;;;;;;;;;5006512;28;20038;-84
2022/04/30 06:32:16;;;;;;;10.65;6.03;;;;;;;;;;4992632;28;20522;-82
2022/04/30 06:34:43;;;;;;;9.77;5.13;;;;;;;;;;5000560;28;20038;-85
2022/04/30 06:37:09;;;;;;;9.38;5.18;;;;;;;;;;5002780;28;20109;-81
2022/04/30 06:39:35;;;;;;;10.38;5.50;;;;;;;;;;4996640;28;20141;-83
2022/04/30 06:42:01;;;;;;;10.35;5.65;;;;;;;;;;4997773;28;20061;-87
2022/04/30 06:44:27;;;;;;;9.18;5.55;;;;;;;;;;5005420;28;20054;-82
2022/04/30 06:46:53;;;;;;;8.10;5.47;;;;;;;;;;4997232;28;20050;-83
2022/04/30 06:49:21;;;;;;;15.57;6.68;;;;;;;;;;5001825;28;20114;-83
2022/04/30 06:51:50;;;;;;;11.85;6.43;;;;;;;;;;5012417;28;20277;-82
2022/04/30 06:57:20;;;;;;;12.20;6.20;;;;;;;;;;4995587;28;20053;-83
2022/04/30 06:59:51;;;;;;;11.32;6.95;;;;;;;;;;4999054;28;20026;-83
2022/04/30 07:02:23;;;;;;;13.05;6.47;;;;;;;;;;5008993;28;20428;-83
2022/04/30 07:04:51;;;;;;;10.38;6.20;;;;;;;;;;5001681;28;20109;-82
2022/04/30 07:07:18;;;;;;;11.35;6.38;;;;;;;;;;4999307;28;20038;-85
2022/04/30 07:09:44;;;;;;;12.05;5.85;;;;;;;;;;5010327;28;20060;-86
2022/04/30 07:12:13;;;;;;;12.50;6.30;;;;;;;;;;5022510;28;20041;-86
2022/04/30 07:14:40;;;;;;;11.65;6.45;;;;;;;;;;5006279;28;20042;-82
2022/04/30 07:17:15;;;;;;;13.38;6.25;;;;;;;;;;5012084;28;20143;-78
2022/04/30 07:19:41;;;;;;;12.90;6.50;;;;;;;;;;5001961;28;20037;-78
2022/04/30 07:22:07;;;;;;;12.50;6.97;;;;;;;;;;4994932;28;20034;-78
2022/04/30 07:24:34;;;;;;;14.75;6.85;;;;;;;;;;5005621;28;20049;-79
2022/04/30 07:27:00;;;;;;;14.52;6.50;;;;;;;;;;5011503;28;20037;-79
2022/04/30 07:29:26;;;;;;;11.30;6.32;;;;;;;;;;4998500;28;20034;-81
2022/04/30 07:31:52;;;;;;;10.75;6.95;;;;;;;;;;4992907;28;20113;-79
2022/04/30 07:34:19;;;;;;;13.38;7.70;;;;;;;;;;5001657;28;20095;-80
2022/04/30 07:36:45;;;;;;;11.48;6.70;;;;;;;;;;5011302;28;20034;-79
2022/04/30 07:39:12;;;;;;;11.27;7.10;;;;;;;;;;5001257;28;20589;-79
2022/04/30 07:41:38;;;;;;;12.23;6.85;;;;;;;;;;4997850;28;20197;-80
2022/04/30 07:44:04;;;;;;;14.40;6.85;;;;;;;;;;4999165;28;20077;-78
2022/04/30 07:46:30;;;;;;;12.13;7.40;;;;;;;;;;4999158;28;20041;-86
2022/04/30 07:48:56;;;;;;;16.63;6.80;;;;;;;;;;4995896;28;20030;-80
2022/04/30 07:51:38;;;;;;;13.95;8.07;;;;;;;;;;5003798;28;20046;-80
2022/04/30 07:54:08;;;;;;;14.07;7.00;;;;;;;;;;4995671;28;20077;-79
2022/04/30 07:56:34;;;;;;;13.25;7.15;;;;;;;;;;4992122;28;20061;-79
2022/04/30 07:59:00;;;;;;;13.60;6.97;;;;;;;;;;5007653;28;20034;-79
2022/04/30 08:01:28;;;;;;;10.82;6.25;;;;;;;;;;5009890;28;20588;-81
2022/04/30 08:03:54;;;;;;;9.43;6.45;;;;;;;;;;4996984;28;20045;-81
2022/04/30 08:06:20;;;;;;;11.55;6.22;;;;;;;;;;4993199;28;20088;-77
2022/04/30 08:08:46;;;;;;;12.77;6.72;;;;;;;;;;5001616;28;20058;-83
2022/04/30 08:11:13;;;;;;;12.73;7.28;;;;;;;;;;5003588;28;20080;-82
2022/04/30 08:13:39;;;;;;;11.80;6.70;;;;;;;;;;5011279;28;20046;-82
2022/04/30 08:16:09;;;;;;;13.38;6.15;;;;;;;;;;4994352;28;20053;-81
2022/04/30 08:18:35;;;;;;;9.88;5.85;;;;;;;;;;5013364;28;20044;-81
2022/04/30 08:21:01;;;;;;;8.75;4.80;;;;;;;;;;5011905;28;20041;-78
2022/04/30 08:23:28;;;;;;;8.98;5.30;;;;;;;;;;4995793;28;20061;-82
2022/04/30 08:25:54;;;;;;;11.00;5.57;;;;;;;;;;4993524;28;20026;-80
2022/04/30 08:28:20;;;;;;;8.10;5.30;;;;;;;;;;4992253;28;20057;-79
2022/04/30 08:30:46;;;;;;;8.88;5.22;;;;;;;;;;4994068;28;20038;-79
2022/04/30 08:33:12;;;;;;;9.75;5.20;;;;;;;;;;4994230;28;20034;-81
2022/04/30 08:35:40;;;;;;;8.25;5.22;;;;;;;;;;4993509;28;20352;-79
2022/04/30 08:38:06;;;;;;;8.23;5.25;;;;;;;;;;4992248;28;20109;-79
2022/04/30 08:40:33;;;;;;;7.65;5.07;;;;;;;;;;4991849;28;20039;-79
2022/04/30 08:43:12;;;;;;;9.48;6.18;;;;;;;;;;4989421;28;20042;-80
2022/04/30 08:45:38;;;;;;;11.05;6.03;;;;;;;;;;4990561;28;20094;-80
2022/04/30 08:48:08;;;;;;;13.68;6.93;;;;;;;;;;4991479;28;20395;-81
2022/04/30 08:50:34;;;;;;;13.32;6.78;;;;;;;;;;4991723;28;20118;-81
2022/04/30 08:53:00;;;;;;;10.63;6.13;;;;;;;;;;4999634;28;20034;-80
2022/04/30 08:55:26;;;;;;;13.18;6.38;;;;;;;;;;4994589;28;20050;-81
2022/04/30 08:57:52;;;;;;;10.80;5.65;;;;;;;;;;4994644;28;20092;-81
2022/04/30 09:00:19;;;;;;;14.10;5.60;;;;;;;;;;4993073;28;20026;-78
2022/04/30 09:02:49;;;;;;;7.53;4.60;;;;;;;;;;5012499;28;20407;-80
2022/04/30 09:05:15;;;;;;;8.25;4.35;;;;;;;;;;5012662;28;20029;-81
2022/04/30 09:07:41;;;;;;;7.18;3.97;;;;;;;;;;5001054;28;20086;-84
2022/04/30 09:10:08;;;;;;;11.65;4.55;;;;;;;;;;4992877;28;20077;-81
2022/04/30 09:12:34;;;;;;;11.40;5.32;;;;;;;;;;4992879;28;20048;-80
2022/04/30 09:15:01;;;;;;;9.30;5.10;;;;;;;;;;4999952;28;20029;-79
2022/04/30 09:17:27;;;;;;;8.38;4.82;;;;;;;;;;5008872;28;20030;-78
2022/04/30 09:20:02;;;;;;;15.07;5.60;;;;;;;;;;5001668;28;20108;-79
2022/04/30 09:22:33;;;;;;;15.45;5.78;;;;;;;;;;5003181;28;20448;-77
2022/04/30 09:25:00;;;;;;;8.70;5.17;;;;;;;;;;4995639;28;20038;-79
2022/04/30 09:27:26;;;;;;;8.07;4.57;;;;;;;;;;4990244;28;20297;-79
2022/04/30 09:29:53;;;;;;;8.40;4.60;;;;;;;;;;4993776;28;20045;-80
2022/04/30 09:32:20;;;;;;;14.52;4.63;;;;;;;;;;4993947;28;20034;-78
2022/04/30 09:37:42;;;;;;;33.92;4.82;;;;;;;;;;5001748;28;20082;-79
2022/04/30 09:40:14;;;;;;;7.35;3.50;;;;;;;;;;5009451;28;20034;-78
2022/04/30 09:42:46;;;;;;;6.82;3.72;;;;;;;;;;5000915;28;20030;-80
2022/04/30 09:45:47;;;;;;;5.93;3.75;;;;;;;;;;5011476;28;20038;-83
2022/04/30 09:53:58;;;;;;;7.78;3.85;;;;;;;;;;4994061;28;20093;-81
2022/04/30 09:56:33;;;;;;;8.68;4.88;;;;;;;;;;4991496;28;20122;-80
2022/04/30 09:58:59;;;;;;;8.52;4.20;;;;;;;;;;4995981;28;20124;-79
2022/04/30 10:01:26;;;;;;;9.68;4.28;;;;;;;;;;4995037;28;20026;-79
2022/04/30 10:03:52;;;;;;;8.77;4.30;;;;;;;;;;4996430;28;20034;-80
2022/04/30 10:06:19;;;;;;;9.15;4.28;;;;;;;;;;5003327;28;20049;-81
2022/04/30 10:08:46;;;;;;;8.35;4.40;;;;;;;;;;5009926;28;20121;-80
2022/04/30 10:11:27;;;;;;;8.32;4.30;;;;;;;;;;4997302;28;20101;-78
2022/04/30 10:13:59;;;;;;;8.05;4.63;;;;;;;;;;5012595;28;20046;-79
2022/04/30 10:16:28;;;;;;;11.93;4.65;;;;;;;;;;5016661;28;20025;-79
2022/04/30 10:19:09;;;;;;;6.95;4.53;;;;;;;;;;5007913;28;20034;-80
2022/04/30 10:21:35;;;;;;;7.63;4.53;;;;;;;;;;5014141;28;20042;-80
2022/04/30 10:24:02;;;;;;;9.50;5.35;;;;;;;;;;5008617;28;20038;-80
2022/04/30 10:26:28;;;;;;;9.57;4.93;;;;;;;;;;5013146;28;20035;-79
2022/04/30 10:28:58;;;;;;;9.48;5.03;;;;;;;;;;4999513;28;20507;-78
2022/04/30 10:31:24;;;;;;;11.30;4.50;;;;;;;;;;4997815;28;20104;-79
2022/04/30 10:33:51;;;;;;;10.35;5.30;;;;;;;;;;5002027;28;20119;-79
2022/04/30 10:36:20;;;;;;;9.90;4.70;;;;;;;;;;5011279;28;20517;-81
2022/04/30 10:38:59;;;;;;;10.50;4.82;;;;;;;;;;5006305;28;20045;-79
2022/04/30 10:41:26;;;;;;;14.25;4.60;;;;;;;;;;4999058;28;20061;-78
2022/04/30 10:44:03;;;;;;;8.02;3.85;;;;;;;;;;4997322;28;20057;-81
2022/04/30 10:46:36;;;;;;;9.43;3.67;;;;;;;;;;4994318;28;20122;-78
2022/04/30 10:49:03;;;;;;;5.82;3.80;;;;;;;;;;5005385;28;20050;-78
2022/04/30 10:51:35;;;;;;;7.88;4.60;;;;;;;;;;5001494;28;20505;-80
2022/04/30 10:54:05;;;;;;;9.50;4.50;;;;;;;;;;5003727;28;20010;-78
2022/04/30 10:56:31;;;;;;;8.45;4.72;;;;;;;;;;5004830;28;20030;-78
2022/04/30 10:58:57;;;;;;;8.90;4.63;;;;;;;;;;5003943;28;20065;-78
2022/04/30 11:01:23;;;;;;;13.07;5.15;;;;;;;;;;4988167;28;20042;-79
2022/04/30 11:03:51;;;;;;;8.68;4.25;;;;;;;;;;5001404;28;20038;-79
2022/04/30 11:06:22;;;;;;;12.13;4.85;;;;;;;;;;5002847;28;20034;-79
2022/04/30 11:09:01;;;;;;;13.25;4.32;;;;;;;;;;4999802;28;20034;-79
2022/04/30 11:11:29;;;;;;;10.88;4.25;;;;;;;;;;5001686;28;20050;-81
2022/04/30 11:14:01;;;;;;;8.80;4.63;;;;;;;;;;5002862;28;20078;-79
2022/04/30 11:16:33;;;;;;;9.88;3.75;;;;;;;;;;5004203;28;20038;-78
2022/04/30 11:19:05;;;;;;;9.20;3.90;;;;;;;;;;5001376;28;20025;-77
2022/04/30 11:21:36;;;;;;;10.25;3.58;;;;;;;;;;5000229;28;20106;-80
2022/04/30 11:24:03;;;;;;;8.07;3.63;;;;;;;;;;4996956;28;20026;-80
2022/04/30 11:26:30;;;;;;;7.95;3.35;;;;;;;;;;5007392;28;20484;-80
2022/04/30 11:28:56;;;;;;;21.75;4.55;;;;;;;;;;5006810;28;20084;-80
2022/04/30 11:31:23;;;;;;;9.13;3.60;;;;;;;;;;4998955;28;20042;-80
2022/04/30 11:33:49;;;;;;;9.07;3.90;;;;;;;;;;5007154;28;20046;-80
2022/04/30 11:36:15;;;;;;;19.17;4.70;;;;;;;;;;5002343;28;20030;-81
2022/04/30 11:38:49;;;;;;;9.02;3.50;;;;;;;;;;4998494;28;20052;-80
2022/04/30 11:41:15;;;;;;;15.18;4.05;;;;;;;;;;5006598;28;20037;-79
2022/04/30 11:43:41;;;;;;;13.35;4.18;;;;;;;;;;5003050;28;20602;-80
2022/04/30 11:46:08;;;;;;;5.32;3.00;;;;;;;;;;5001991;28;20259;-80
2022/04/30 11:48:40;;;;;;;20.83;3.95;;;;;;;;;;5002957;28;20022;-79
2022/04/30 11:51:07;;;;;;;9.98;3.55;;;;;;;;;;5001861;28;20045;-80
2022/04/30 11:53:34;;;;;;;11.65;3.70;;;;;;;;;;4997167;28;20047;-81
2022/04/30 11:56:00;;;;;;;16.98;4.30;;;;;;;;;;4998087;28;20511;-78
2022/04/30 11:58:38;;;;;;;8.32;3.45;;;;;;;;;;4997831;28;20199;-84
2022/04/30 12:01:05;;;;;;;8.70;3.53;;;;;;;;;;5006943;28;20159;-81
2022/04/30 12:03:31;;;;;;;7.75;3.90;;;;;;;;;;4997018;28;20038;-79
2022/04/30 12:05:57;;;;;;;11.27;4.25;;;;;;;;;;4998784;28;20026;-80
2022/04/30 12:08:30;;;;;;;9.32;3.70;;;;;;;;;;5004046;28;20033;-79
2022/04/30 12:10:56;;;;;;;7.30;3.90;;;;;;;;;;5005990;28;20097;-80
2022/04/30 12:13:23;;;;;;;17.33;4.70;;;;;;;;;;5002474;28;20058;-81
2022/04/30 12:15:49;;;;;;;9.00;3.30;;;;;;;;;;5000179;28;20030;-79
2022/04/30 12:26:58;;;;;;;7.53;3.22;;;;;;;;;;5005703;28;20126;-79
2022/04/30 12:29:25;;;;;;;6.30;3.13;;;;;;;;;;5002312;28;20443;-80
2022/04/30 12:31:52;;;;;;;12.40;3.40;;;;;;;;;;5008248;28;20114;-79
2022/04/30 12:34:19;;;;;;;6.55;3.40;;;;;;;;;;5003152;28;20046;-79
2022/04/30 12:36:57;;;;;;;7.18;2.95;;;;;;;;;;5001107;28;20034;-79
2022/04/30 12:39:23;;;;;;;8.30;2.97;;;;;;;;;;5001300;28;20029;-79
2022/04/30 12:41:52;;;;;;;4.10;2.60;;;;;;;;;;5006863;28;20129;-79
2022/04/30 12:44:20;;;;;;;7.68;3.30;;;;;;;;;;5000195;28;20058;-79
2022/04/30 12:46:47;;;;;;;5.53;3.30;;;;;;;;;;4990691;28;20042;-82
2022/04/30 12:49:14;;;;;;;5.80;3.33;;;;;;;;;;5004589;28;20518;-74
2022/04/30 12:51:40;;;;;;;4.38;3.50;;;;;;;;;;4997284;28;20458;-77
2022/04/30 12:54:07;;;;;;;5.18;3.17;;;;;;;;;;4998943;28;20030;-74
2022/04/30 12:56:33;;;;;;;6.70;3.65;;;;;;;;;;4992858;28;20026;-75
2022/04/30 12:58:59;;;;;;;7.32;3.60;;;;;;;;;;5000194;28;20026;-76
2022/04/30 13:01:25;;;;;;;6.63;3.60;;;;;;;;;;5001869;28;20113;-76
2022/04/30 13:03:51;;;;;;;5.65;3.70;;;;;;;;;;5002089;28;20394;-78
2022/04/30 13:06:20;;;;;;;8.95;3.75;;;;;;;;;;4998648;28;20026;-74
2022/04/30 13:14:15;;;;;;;6.88;2.97;;;;;;;;;;4996317;28;20411;-75
2022/04/30 13:16:41;;;;;;;5.65;2.60;;;;;;;;;;5000443;28;20026;-75
2022/04/30 13:19:08;;;;;;;6.07;2.60;;;;;;;;;;4993537;28;20041;-75
2022/04/30 13:21:34;;;;;;;5.47;2.78;;;;;;;;;;4991678;28;20046;-75
2022/04/30 13:24:00;;;;;;;6.78;2.42;;;;;;;;;;4988434;28;20106;-79
2022/04/30 13:26:27;;;;;;;3.75;2.38;;;;;;;;;;4990312;28;20113;-73
2022/04/30 13:28:52;;;;;;;5.30;2.88;;;;;;;;;;4993440;28;20033;-76
2022/04/30 13:31:18;;;;;;;5.45;2.80;;;;;;;;;;4992985;28;20034;-76
2022/04/30 13:33:44;;;;;;;8.95;2.97;;;;;;;;;;4996164;28;20084;-76
2022/04/30 13:36:10;;;;;;;5.28;2.67;;;;;;;;;;4996700;28;20056;-76
2022/04/30 13:38:40;;;;;;;7.90;2.90;;;;;;;;;;5003148;28;20060;-76
2022/04/30 13:41:06;;;;;;;9.50;3.10;;;;;;;;;;4997908;28;20037;-77
2022/04/30 13:43:32;;;;;;;10.57;3.10;;;;;;;;;;5011456;28;20033;-75
2022/04/30 13:45:59;;;;;;;9.20;3.17;;;;;;;;;;5014286;28;20440;-77
2022/04/30 13:48:25;;;;;;;7.88;3.03;;;;;;;;;;5004055;28;20025;-76
2022/04/30 13:50:54;;;;;;;9.02;2.90;;;;;;;;;;4996465;28;20045;-76
2022/04/30 13:53:21;;;;;;;5.82;2.95;;;;;;;;;;5006028;28;20054;-76
2022/04/30 13:55:47;;;;;;;6.75;3.28;;;;;;;;;;5013523;28;20030;-76
2022/04/30 13:58:13;;;;;;;6.07;2.90;;;;;;;;;;5006592;28;20562;-75
2022/04/30 14:00:39;;;;;;;4.85;3.10;;;;;;;;;;5011786;28;20048;-76
2022/04/30 14:03:06;;;;;;;5.88;2.88;;;;;;;;;;5001274;28;20034;-76
2022/04/30 14:05:32;;;;;;;5.43;3.15;;;;;;;;;;5003936;28;20129;-78
2022/04/30 14:07:58;;;;;;;11.63;3.97;;;;;;;;;;4996188;28;20045;-77
2022/04/30 14:10:28;;;;;;;6.10;3.30;;;;;;;;;;5002320;28;20057;-77
2022/04/30 14:12:54;;;;;;;6.70;3.00;;;;;;;;;;5006597;28;20046;-79
2022/04/30 14:15:21;;;;;;;4.55;2.63;;;;;;;;;;5011373;28;20045;-77
2022/04/30 14:20:33;;;;;;;6.32;3.00;;;;;;;;;;5000419;28;20205;-76
2022/04/30 14:23:00;;;;;;;6.55;2.97;;;;;;;;;;4994935;28;20034;-75
2022/04/30 14:25:26;;;;;;;6.78;2.92;;;;;;;;;;4994407;28;20034;-75
2022/04/30 14:27:52;;;;;;;5.55;2.58;;;;;;;;;;4996584;28;20029;-76
2022/04/30 14:30:19;;;;;;;6.20;2.90;;;;;;;;;;5001807;28;20034;-76
2022/04/30 14:32:45;;;;;;;6.50;3.13;;;;;;;;;;5000218;28;20483;-74
2022/04/30 14:35:11;;;;;;;7.65;3.42;;;;;;;;;;5007996;28;20042;-76
2022/04/30 14:37:37;;;;;;;5.20;3.33;;;;;;;;;;5004112;28;20035;-76
2022/04/30 14:40:04;;;;;;;6.55;3.63;;;;;;;;;;4998806;28;20026;-76
2022/04/30 14:42:31;;;;;;;5.68;4.00;;;;;;;;;;4992672;28;20105;-75
2022/04/30 14:44:57;;;;;;;6.53;3.90;;;;;;;;;;4992630;28;20061;-76
2022/04/30 14:47:23;;;;;;;7.07;3.80;;;;;;;;;;5010636;28;20034;-77
2022/04/30 14:49:49;;;;;;;9.50;4.05;;;;;;;;;;5001901;28;20192;-76
2022/04/30 14:52:15;;;;;;;8.77;3.70;;;;;;;;;;5002527;28;20021;-76
2022/04/30 14:54:41;;;;;;;6.60;3.63;;;;;;;;;;4991028;28;20044;-75
2022/04/30 14:57:08;;;;;;;8.30;3.00;;;;;;;;;;4994006;28;20062;-76
2022/04/30 14:59:34;;;;;;;7.78;3.70;;;;;;;;;;4998505;28;20495;-76
2022/04/30 15:02:00;;;;;;;5.95;3.40;;;;;;;;;;5001379;28;20483;-76
2022/04/30 15:04:26;;;;;;;8.27;3.75;;;;;;;;;;4992201;28;20038;-77
2022/04/30 15:06:55;;;;;;;7.63;3.75;;;;;;;;;;4991927;28;20038;-76
2022/04/30 15:09:21;;;;;;;8.77;3.35;;;;;;;;;;4991643;28;20030;-75
2022/04/30 15:11:47;;;;;;;5.97;3.60;;;;;;;;;;4991608;28;20031;-76
2022/04/30 15:14:13;;;;;;;6.65;3.53;;;;;;;;;;4992523;28;20133;-75
2022/04/30 15:16:39;;;;;;;8.68;3.50;;;;;;;;;;5004027;28;20161;-76
2022/04/30 15:19:05;;;;;;;8.18;3.65;;;;;;;;;;5007751;28;20480;-76